Map

Track Data

SID SEASON NUMBER BASIN SUBBASIN NAME ISO_TIME NATURE LAT LON WMO_WIND WMO_PRES WMO_AGENCY TRACK_TYPE DIST2LAND LANDFALL IFLAG USA_AGENCY USA_ATCF_ID USA_LAT USA_LON USA_RECORD USA_STATUS USA_WIND USA_PRES USA_SSHS USA_R34_NE USA_R34_SE USA_R34_SW USA_R34_NW USA_R50_NE USA_R50_SE USA_R50_SW USA_R50_NW USA_R64_NE USA_R64_SE USA_R64_SW USA_R64_NW USA_POCI USA_ROCI USA_RMW USA_EYE TOKYO_LAT TOKYO_LON TOKYO_GRADE TOKYO_WIND TOKYO_PRES TOKYO_R50_DIR TOKYO_R50_LONG TOKYO_R50_SHORT TOKYO_R30_DIR TOKYO_R30_LONG TOKYO_R30_SHORT TOKYO_LAND CMA_LAT CMA_LON CMA_CAT CMA_WIND CMA_PRES HKO_LAT HKO_LON HKO_CAT HKO_WIND HKO_PRES NEWDELHI_LAT NEWDELHI_LON NEWDELHI_GRADE NEWDELHI_WIND NEWDELHI_PRES NEWDELHI_CI NEWDELHI_DP NEWDELHI_POCI REUNION_LAT REUNION_LON REUNION_TYPE REUNION_WIND REUNION_PRES REUNION_TNUM REUNION_CI REUNION_RMW REUNION_R34_NE REUNION_R34_SE REUNION_R34_SW REUNION_R34_NW REUNION_R50_NE REUNION_R50_SE REUNION_R50_SW REUNION_R50_NW REUNION_R64_NE REUNION_R64_SE REUNION_R64_SW REUNION_R64_NW BOM_LAT BOM_LON BOM_TYPE BOM_WIND BOM_PRES BOM_TNUM BOM_CI BOM_RMW BOM_R34_NE BOM_R34_SE BOM_R34_SW BOM_R34_NW BOM_R50_NE BOM_R50_SE BOM_R50_SW BOM_R50_NW BOM_R64_NE BOM_R64_SE BOM_R64_SW BOM_R64_NW BOM_ROCI BOM_POCI BOM_EYE BOM_POS_METHOD BOM_PRES_METHOD NADI_LAT NADI_LON NADI_CAT NADI_WIND NADI_PRES WELLINGTON_LAT WELLINGTON_LON WELLINGTON_WIND WELLINGTON_PRES DS824_LAT DS824_LON DS824_STAGE DS824_WIND DS824_PRES TD9636_LAT TD9636_LON TD9636_STAGE TD9636_WIND TD9636_PRES TD9635_LAT TD9635_LON TD9635_WIND TD9635_PRES TD9635_ROCI NEUMANN_LAT NEUMANN_LON NEUMANN_CLASS NEUMANN_WIND NEUMANN_PRES MLC_LAT MLC_LON MLC_CLASS MLC_WIND MLC_PRES USA_GUST BOM_GUST BOM_GUST_PER REUNION_GUST REUNION_GUST_PER USA_SEAHGT USA_SEARAD_NE USA_SEARAD_SE USA_SEARAD_SW USA_SEARAD_NW STORM_SPEED STORM_DIR
1894164N23091 1894 21 NI BB NOT_NAMED 1894-06-13 00:00:00 TS 22.9000 91.4000 main 0 0 _________O____ -1 22.9000 91.4000 TC 30 2 289
1894164N23091 1894 21 NI BB NOT_NAMED 1894-06-13 03:00:00 TS 22.9400 91.2734 main 0 0 _________PO___ -1 22.9600 91.2101 TC 30 22.9000 91.4000 1 3 284
1894164N23091 1894 21 NI BB NOT_NAMED 1894-06-13 06:00:00 TS 22.9732 91.0732 main 0 0 _________OP___ -1 23.0000 91.0000 TC 30 22.9330 91.1830 1 4 277
1894164N23091 1894 21 NI BB NOT_NAMED 1894-06-13 09:00:00 TS 22.9883 90.8454 main 0 0 _________PP___ -1 23.0075 90.7575 TC 30 22.9628 90.9627 1 4 273
1894164N23091 1894 21 NI BB NOT_NAMED 1894-06-13 12:00:00 TS 22.9931 90.6180 main 0 0 _________OP___ -1 23.0000 90.5000 TC 30 22.9861 90.7361 1 4 272
1894164N23091 1894 21 NI BB NOT_NAMED 1894-06-13 15:00:00 TS 23.0000 90.3788 main 0 0 _________PO___ -1 22.9999 90.2575 TC 30 23.0000 90.5000 1 5 271
1894164N23091 1894 21 NI BB NOT_NAMED 1894-06-13 18:00:00 TS 23.0015 90.1257 main 0 0 _________OP___ -1 23.0000 90.0000 TC 30 23.0029 90.2514 1 5 270
1894164N23091 1894 21 NI BB NOT_NAMED 1894-06-13 21:00:00 TS 22.9998 89.8512 main 0 0 _________PP___ -1 22.9999 89.7150 TC 30 22.9997 89.9873 1 5 270
1894164N23091 1894 21 NI BB NOT_NAMED 1894-06-14 00:00:00 TS 22.9983 89.5523 main 0 0 _________OP___ -1 23.0000 89.4000 TC 30 22.9966 89.7045 1 6 270
1894164N23091 1894 21 NI BB NOT_NAMED 1894-06-14 03:00:00 TS 22.9962 89.2287 main 0 0 _________PO___ -1 22.9925 89.0574 TC 30 23.0000 89.4000 1 6 271
1894164N23091 1894 21 NI BB NOT_NAMED 1894-06-14 06:00:00 TS 23.0067 88.8939 main 0 0 _________OP___ -1 23.0000 88.7000 TC 30 23.0135 89.0877 1 6 274
1894164N23091 1894 21 NI BB NOT_NAMED 1894-06-14 09:00:00 TS 23.0384 88.5587 main 0 0 _________PP___ -1 23.0423 88.3650 TC 30 23.0345 88.7524 1 6 277
1894164N23091 1894 21 NI BB NOT_NAMED 1894-06-14 12:00:00 TS 23.0817 88.1954 main 0 0 _________OP___ -1 23.1000 88.0000 TC 30 23.0633 88.3908 1 7 277
1894164N23091 1894 21 NI BB NOT_NAMED 1894-06-14 15:00:00 TS 23.1250 87.7825 main 0 0 _________PO___ -1 23.1500 87.5650 TC 30 23.1000 88.0000 1 8 276
1894164N23091 1894 21 NI BB NOT_NAMED 1894-06-14 18:00:00 TS 23.1692 87.3474 main 0 0 _________OP___ -1 23.2000 87.1000 TC 30 23.1384 87.5949 1 8 277
1894164N23091 1894 21 NI BB NOT_NAMED 1894-06-14 21:00:00 TS 23.2171 86.9123 main 0 0 _________PP___ -1 23.2497 86.6649 TC 30 23.1844 87.1597 1 8 277
1894164N23091 1894 21 NI BB NOT_NAMED 1894-06-15 00:00:00 TS 23.2691 86.4474 main 0 0 _________OP___ -1 23.3000 86.2000 TC 30 23.2382 86.6948 1 9 277
1894164N23091 1894 21 NI BB NOT_NAMED 1894-06-15 03:00:00 TS 23.3212 85.9324 main 0 0 _________PO___ -1 23.3425 85.6649 TC 30 23.3000 86.2000 1 9 277
1894164N23091 1894 21 NI BB NOT_NAMED 1894-06-15 06:00:00 TS 23.3807 85.4256 main 0 0 _________OP___ -1 23.4000 85.1000 TC 30 23.3614 85.7511 1 9 279
1894164N23091 1894 21 NI BB NOT_NAMED 1894-06-15 09:00:00 TS 23.4613 84.9406 main 0 0 _________PP___ -1 23.4914 84.6173 TC 30 23.4312 85.2638 1 10 280
1894164N23091 1894 21 NI BB NOT_NAMED 1894-06-15 12:00:00 TS 23.5552 84.3473 main 0 0 _________OP___ -1 23.6000 84.0000 TC 30 23.5105 84.6946 1 13 278
1894164N23091 1894 21 NI BB NOT_NAMED 1894-06-15 15:00:00 TS 23.6502 83.5337 main 0 0 _________PO___ -1 23.7005 83.0674 TC 30 23.6000 84.0000 1 17 277
1894164N23091 1894 21 NI BB NOT_NAMED 1894-06-15 18:00:00 TS 23.7545 82.5348 main 0 0 _________OP___ -1 23.8000 82.0000 TC 30 23.7089 83.0696 1 19 277
1894164N23091 1894 21 NI BB NOT_NAMED 1894-06-15 21:00:00 TS 23.8680 81.4859 main 0 0 _________PP___ -1 23.9152 80.9478 TC 30 23.8207 82.0240 1 19 276
1894164N23091 1894 21 NI BB NOT_NAMED 1894-06-16 00:00:00 TS 23.9607 80.4831 main 0 0 _________OP___ -1 24.0000 80.0000 TC 30 23.9214 80.9662 1 17 275
1894164N23091 1894 21 NI BB NOT_NAMED 1894-06-16 03:00:00 TS 24.0033 79.6448 main 0 0 _________PO___ -1 24.0065 79.2896 TC 30 24.0000 80.0000 1 14 272
1894164N23091 1894 21 NI BB NOT_NAMED 1894-06-16 06:00:00 TS 24.0073 78.9828 main 0 0 _________OP___ -1 24.0000 78.7000 TC 30 24.0146 79.2656 1 12 271
1894164N23091 1894 21 NI BB NOT_NAMED 1894-06-16 09:00:00 TS 24.0214 78.3675 main 0 0 _________PP___ -1 24.0271 78.0998 TC 30 24.0157 78.6352 1 11 273
1894164N23091 1894 21 NI AS NOT_NAMED 1894-06-16 12:00:00 TS 24.0670 77.7812 main 0 0 _________OP___ -1 24.1000 77.5000 TC 30 24.0341 78.0624 1 11 277
1894164N23091 1894 21 NI AS NOT_NAMED 1894-06-16 15:00:00 TS 24.1600 77.1749 main 0 0 _________PO___ -1 24.2199 76.8499 TC 30 24.1000 77.5000 1 12 282
1894164N23091 1894 21 NI AS NOT_NAMED 1894-06-16 18:00:00 TS 24.3191 76.5076 main 0 0 _________OP___ -1 24.4000 76.2000 TC 30 24.2382 76.8152 1 13 287
1894164N23091 1894 21 NI AS NOT_NAMED 1894-06-16 21:00:00 TS 24.5306 75.8434 main 0 0 _________PP___ -1 24.6351 75.5477 TC 30 24.4262 76.1391 1 12 292
1894164N23091 1894 21 NI AS NOT_NAMED 1894-06-17 00:00:00 TS 24.7754 75.2591 main 0 0 _________OP___ -1 24.9000 75.0000 TC 30 24.6509 75.5182 1 11 298
1894164N23091 1894 21 NI AS NOT_NAMED 1894-06-17 03:00:00 TS 25.0211 74.8198 main 0 0 _________PO___ -1 25.1421 74.6397 TC 30 24.9000 75.0000 1 8 306
1894164N23091 1894 21 NI AS NOT_NAMED 1894-06-17 06:00:00 TS 25.2720 74.5086 main 0 0 _________OP___ -1 25.4000 74.4000 TC 30 25.1439 74.6172 1 7 316
1894164N23091 1894 21 NI AS NOT_NAMED 1894-06-17 09:00:00 TS 25.5517 74.2596 main 0 0 _________PP___ -1 25.6924 74.1774 TC 30 25.4109 74.3418 1 7 326
1894164N23091 1894 21 NI AS NOT_NAMED 1894-06-17 12:00:00 TS 25.8488 74.0727 main 0 0 _________OP___ -1 26.0000 74.0000 TC 30 25.6975 74.1455 1 7 332
1894164N23091 1894 21 NI AS NOT_NAMED 1894-06-17 15:00:00 TS 26.1462 73.9137 main 0 0 _________PO___ -1 26.2925 73.8275 TC 30 26.0000 74.0000 1 6 338
1894164N23091 1894 21 NI AS NOT_NAMED 1894-06-17 18:00:00 TS 26.4369 73.8032 main 0 0 _________OP___ -1 26.6000 73.7000 TC 30 26.3146 73.8807 1 6 344
1894164N23091 1894 21 NI AS NOT_NAMED 1894-06-17 21:00:00 TS 26.7589 73.7198 main 0 0 _________PP___ -1 26.9400 73.6325 TC 30 26.6381 73.7780 1 7 348
1894164N23091 1894 21 NI AS NOT_NAMED 1894-06-18 00:00:00 TS 27.0784 73.6576 main 0 0 _________OP___ -1 27.3000 73.6000 TC 30 26.9676 73.6864 1 6 349
1894164N23091 1894 21 NI AS NOT_NAMED 1894-06-18 03:00:00 NR 27.3000 73.6000 main 0 __________O___ -1 TC 27.3000 73.6000 1 5 347

About IBTrACS Database

This database is a web-friendly format of International Best Track Archive for Climate Stewardship (IBTrACS), a global best track data archive curated by NOAA dating back to 1842.

Updated: 2021-11-26